地図

経路データ

SID SEASON NUMBER BASIN SUBBASIN NAME ISO_TIME NATURE LAT LON WMO_WIND WMO_PRES WMO_AGENCY TRACK_TYPE DIST2LAND LANDFALL IFLAG USA_AGENCY USA_ATCF_ID USA_LAT USA_LON USA_RECORD USA_STATUS USA_WIND USA_PRES USA_SSHS USA_R34_NE USA_R34_SE USA_R34_SW USA_R34_NW USA_R50_NE USA_R50_SE USA_R50_SW USA_R50_NW USA_R64_NE USA_R64_SE USA_R64_SW USA_R64_NW USA_POCI USA_ROCI USA_RMW USA_EYE TOKYO_LAT TOKYO_LON TOKYO_GRADE TOKYO_WIND TOKYO_PRES TOKYO_R50_DIR TOKYO_R50_LONG TOKYO_R50_SHORT TOKYO_R30_DIR TOKYO_R30_LONG TOKYO_R30_SHORT TOKYO_LAND CMA_LAT CMA_LON CMA_CAT CMA_WIND CMA_PRES HKO_LAT HKO_LON HKO_CAT HKO_WIND HKO_PRES NEWDELHI_LAT NEWDELHI_LON NEWDELHI_GRADE NEWDELHI_WIND NEWDELHI_PRES NEWDELHI_CI NEWDELHI_DP NEWDELHI_POCI REUNION_LAT REUNION_LON REUNION_TYPE REUNION_WIND REUNION_PRES REUNION_TNUM REUNION_CI REUNION_RMW REUNION_R34_NE REUNION_R34_SE REUNION_R34_SW REUNION_R34_NW REUNION_R50_NE REUNION_R50_SE REUNION_R50_SW REUNION_R50_NW REUNION_R64_NE REUNION_R64_SE REUNION_R64_SW REUNION_R64_NW BOM_LAT BOM_LON BOM_TYPE BOM_WIND BOM_PRES BOM_TNUM BOM_CI BOM_RMW BOM_R34_NE BOM_R34_SE BOM_R34_SW BOM_R34_NW BOM_R50_NE BOM_R50_SE BOM_R50_SW BOM_R50_NW BOM_R64_NE BOM_R64_SE BOM_R64_SW BOM_R64_NW BOM_ROCI BOM_POCI BOM_EYE BOM_POS_METHOD BOM_PRES_METHOD NADI_LAT NADI_LON NADI_CAT NADI_WIND NADI_PRES WELLINGTON_LAT WELLINGTON_LON WELLINGTON_WIND WELLINGTON_PRES DS824_LAT DS824_LON DS824_STAGE DS824_WIND DS824_PRES TD9636_LAT TD9636_LON TD9636_STAGE TD9636_WIND TD9636_PRES TD9635_LAT TD9635_LON TD9635_WIND TD9635_PRES TD9635_ROCI NEUMANN_LAT NEUMANN_LON NEUMANN_CLASS NEUMANN_WIND NEUMANN_PRES MLC_LAT MLC_LON MLC_CLASS MLC_WIND MLC_PRES USA_GUST BOM_GUST BOM_GUST_PER REUNION_GUST REUNION_GUST_PER USA_SEAHGT USA_SEARAD_NE USA_SEARAD_SE USA_SEARAD_SW USA_SEARAD_NW STORM_SPEED STORM_DIR
1942205N18143 1942 29 WP MM NOT_NAMED 1942-07-23 12:00:00 NR 17.6000 142.500 main 1887 1792 __________O___ -1 17.6000 142.500 4 19 319
1942205N18143 1942 29 WP MM NOT_NAMED 1942-07-23 15:00:00 NR 18.3084 141.853 main 1792 1709 __________P___ -1 18.3084 141.853 4 18 319
1942205N18143 1942 29 WP MM NOT_NAMED 1942-07-23 18:00:00 NR 18.9727 141.221 main 1695 1622 __________P___ -1 18.9727 141.221 4 17 317
1942205N18143 1942 29 WP MM NOT_NAMED 1942-07-23 21:00:00 NR 19.5504 140.629 main 1607 1541 __________P___ -1 19.5504 140.629 4 15 314
1942205N18143 1942 29 WP MM NOT_NAMED 1942-07-24 00:00:00 NR 20.0000 140.100 main 1541 1490 __________O___ -1 20.0000 140.100 4 12 309
1942205N18143 1942 29 WP MM NOT_NAMED 1942-07-24 03:00:00 NR 20.2959 139.648 main 1485 1449 __________P___ -1 20.2959 139.648 4 9 301
1942205N18143 1942 29 WP MM NOT_NAMED 1942-07-24 06:00:00 NR 20.4758 139.252 main 1449 1418 __________P___ -1 20.4758 139.252 4 8 292
1942205N18143 1942 29 WP MM NOT_NAMED 1942-07-24 09:00:00 NR 20.5929 138.880 main 1418 1388 __________P___ -1 20.5929 138.880 4 7 288
1942205N18143 1942 29 WP MM NOT_NAMED 1942-07-24 12:00:00 NR 20.7000 138.500 main 1388 1347 __________O___ -1 20.7000 138.500 4 8 292
1942205N18143 1942 29 WP MM NOT_NAMED 1942-07-24 15:00:00 NR 20.8951 138.069 main 1347 1301 __________P___ -1 20.8951 138.069 4 9 295
1942205N18143 1942 29 WP MM NOT_NAMED 1942-07-24 18:00:00 NR 21.0871 137.623 main 1301 1261 __________P___ -1 21.0871 137.623 4 9 293
1942205N18143 1942 29 WP MM NOT_NAMED 1942-07-24 21:00:00 NR 21.2606 137.166 main 1261 1227 __________P___ -1 21.2606 137.166 4 9 290
1942205N18143 1942 29 WP MM NOT_NAMED 1942-07-25 00:00:00 NR 21.4000 136.700 main 1227 1198 __________O___ -1 21.4000 136.700 4 9 285
1942205N18143 1942 29 WP MM NOT_NAMED 1942-07-25 03:00:00 NR 21.4895 136.240 main 1193 1176 __________P___ -1 21.4895 136.240 4 9 279
1942205N18143 1942 29 WP MM NOT_NAMED 1942-07-25 06:00:00 NR 21.5443 135.772 main 1176 1145 __________P___ -1 21.5443 135.772 4 9 276
1942205N18143 1942 29 WP MM NOT_NAMED 1942-07-25 09:00:00 NR 21.5770 135.293 main 1145 1126 __________P___ -1 21.5770 135.293 4 9 274
1942205N18143 1942 29 WP MM NOT_NAMED 1942-07-25 12:00:00 NR 21.6000 134.800 main 1126 1109 __________O___ -1 21.6000 134.800 4 9 274
1942205N18143 1942 29 WP MM NOT_NAMED 1942-07-25 15:00:00 NR 21.6360 134.289 main 1109 1083 __________P___ -1 21.6360 134.289 4 10 274
1942205N18143 1942 29 WP MM NOT_NAMED 1942-07-25 18:00:00 NR 21.6646 133.765 main 1083 1070 __________P___ -1 21.6646 133.765 4 10 273
1942205N18143 1942 29 WP MM NOT_NAMED 1942-07-25 21:00:00 NR 21.6859 133.233 main 1068 1057 __________P___ -1 21.6859 133.233 4 10 272
1942205N18143 1942 29 WP MM NOT_NAMED 1942-07-26 00:00:00 NR 21.7000 132.700 main 1057 1049 __________O___ -1 21.7000 132.700 4 10 271
1942205N18143 1942 29 WP MM NOT_NAMED 1942-07-26 03:00:00 NR 21.7069 132.163 main 1049 1043 __________P___ -1 21.7069 132.163 4 10 270
1942205N18143 1942 29 WP MM NOT_NAMED 1942-07-26 06:00:00 NR 21.7072 131.627 main 1038 990 __________P___ -1 21.7072 131.627 4 10 270
1942205N18143 1942 29 WP MM NOT_NAMED 1942-07-26 09:00:00 NR 21.7039 131.103 main 990 941 __________P___ -1 21.7039 131.103 4 10 270
1942205N18143 1942 29 WP MM NOT_NAMED 1942-07-26 12:00:00 NR 21.7000 130.600 main 941 903 __________O___ -1 21.7000 130.600 4 9 270
1942205N18143 1942 29 WP MM NOT_NAMED 1942-07-26 15:00:00 NR 21.6991 130.141 main 894 856 __________P___ -1 21.6991 130.141 4 8 270
1942205N18143 1942 29 WP MM NOT_NAMED 1942-07-26 18:00:00 NR 21.6987 129.700 main 856 818 __________P___ -1 21.6987 129.700 4 8 270
1942205N18143 1942 29 WP MM NOT_NAMED 1942-07-26 21:00:00 NR 21.6991 129.259 main 818 771 __________P___ -1 21.6991 129.259 4 8 270
1942205N18143 1942 29 WP MM NOT_NAMED 1942-07-27 00:00:00 NR 21.7000 128.800 main 771 725 __________O___ -1 21.7000 128.800 4 9 270
1942205N18143 1942 29 WP MM NOT_NAMED 1942-07-27 03:00:00 NR 21.7037 128.305 main 725 676 __________P___ -1 21.7037 128.305 4 9 270
1942205N18143 1942 29 WP MM NOT_NAMED 1942-07-27 06:00:00 NR 21.7069 127.788 main 676 626 __________P___ -1 21.7069 127.788 4 10 270
1942205N18143 1942 29 WP MM NOT_NAMED 1942-07-27 09:00:00 NR 21.7067 127.252 main 626 566 __________P___ -1 21.7067 127.252 4 10 270
1942205N18143 1942 29 WP MM NOT_NAMED 1942-07-27 12:00:00 NR 21.7000 126.700 main 566 517 __________O___ -1 21.7000 126.700 4 10 269
1942205N18143 1942 29 WP MM NOT_NAMED 1942-07-27 15:00:00 NR 21.6846 126.136 main 507 459 __________P___ -1 21.6846 126.136 4 11 268
1942205N18143 1942 29 WP MM NOT_NAMED 1942-07-27 18:00:00 NR 21.6616 125.562 main 459 406 __________P___ -1 21.6616 125.562 4 11 267
1942205N18143 1942 29 WP MM NOT_NAMED 1942-07-27 21:00:00 NR 21.6328 124.983 main 406 351 __________P___ -1 21.6328 124.983 4 11 267
1942205N18143 1942 29 WP MM NOT_NAMED 1942-07-28 00:00:00 NR 21.6000 124.400 main 351 __________O___ -1 21.6000 124.400 4 11 267

デジタル台風データ・検索

IBTrACS Databaseについて

本データベースは、米国NOAAが公開する1842年以降の世界の熱帯低気圧のベストトラックデータアーカイブInternational Best Track Archive for Climate Stewardship (IBTrACS)を、ウェブで閲覧しやすい形式に変換したものです。

最終更新日:2021-10-21